sensor_id;sensor_type;location;lat;lon;timestamp;temperature;humidity
15409;DHT22;7803;48.130;13.788;2024-01-10T01:07:33;23.40;63.50
15409;DHT22;7803;48.130;13.788;2024-01-10T01:10:57;23.40;62.20
15409;DHT22;7803;48.130;13.788;2024-01-10T01:14:03;23.50;62.00
15409;DHT22;7803;48.130;13.788;2024-01-10T01:17:07;23.50;62.40
15409;DHT22;7803;48.130;13.788;2024-01-10T01:20:14;23.50;62.20
15409;DHT22;7803;48.130;13.788;2024-01-10T01:23:19;23.60;62.00
15409;DHT22;7803;48.130;13.788;2024-01-10T01:26:22;23.80;61.10
15409;DHT22;7803;48.130;13.788;2024-01-10T01:29:24;24.10;60.50
15409;DHT22;7803;48.130;13.788;2024-01-10T01:32:26;24.20;60.10
15409;DHT22;7803;48.130;13.788;2024-01-10T01:35:29;24.20;60.80
15409;DHT22;7803;48.130;13.788;2024-01-10T01:39:02;24.20;60.00
15409;DHT22;7803;48.130;13.788;2024-01-10T01:42:07;24.20;60.30
15409;DHT22;7803;48.130;13.788;2024-01-10T01:45:10;24.10;60.50
15409;DHT22;7803;48.130;13.788;2024-01-10T01:48:17;24.00;60.70
15409;DHT22;7803;48.130;13.788;2024-01-10T01:51:23;23.90;60.80
15409;DHT22;7803;48.130;13.788;2024-01-10T01:58:27;23.90;61.80
15409;DHT22;7803;48.130;13.788;2024-01-10T02:01:43;23.80;62.40
15409;DHT22;7803;48.130;13.788;2024-01-10T02:04:46;23.80;63.50
15409;DHT22;7803;48.130;13.788;2024-01-10T02:07:51;23.70;63.20
15409;DHT22;7803;48.130;13.788;2024-01-10T02:10:53;23.80;63.20
15409;DHT22;7803;48.130;13.788;2024-01-10T02:21:28;23.70;63.00
15409;DHT22;7803;48.130;13.788;2024-01-10T02:24:38;23.70;63.20
15409;DHT22;7803;48.130;13.788;2024-01-10T02:27:42;23.60;63.10
15409;DHT22;7803;48.130;13.788;2024-01-10T02:30:44;23.70;63.10
15409;DHT22;7803;48.130;13.788;2024-01-10T02:33:50;23.60;63.10
15409;DHT22;7803;48.130;13.788;2024-01-10T02:36:53;23.60;63.20
15409;DHT22;7803;48.130;13.788;2024-01-10T02:39:57;23.70;63.30
15409;DHT22;7803;48.130;13.788;2024-01-10T02:43:16;23.60;63.20
15409;DHT22;7803;48.130;13.788;2024-01-10T02:46:18;23.60;63.30
15409;DHT22;7803;48.130;13.788;2024-01-10T02:49:34;23.60;63.20
15409;DHT22;7803;48.130;13.788;2024-01-10T02:52:37;23.60;63.20
15409;DHT22;7803;48.130;13.788;2024-01-10T02:55:39;23.60;63.20
15409;DHT22;7803;48.130;13.788;2024-01-10T02:59:06;23.60;63.10
15409;DHT22;7803;48.130;13.788;2024-01-10T03:02:09;23.60;63.20
15409;DHT22;7803;48.130;13.788;2024-01-10T03:05:13;23.60;63.00
15409;DHT22;7803;48.130;13.788;2024-01-10T03:08:16;23.60;63.00
15409;DHT22;7803;48.130;13.788;2024-01-10T03:11:18;23.60;62.90
15409;DHT22;7803;48.130;13.788;2024-01-10T03:18:07;23.60;62.80
15409;DHT22;7803;48.130;13.788;2024-01-10T03:21:09;23.60;62.70
15409;DHT22;7803;48.130;13.788;2024-01-10T03:24:11;23.60;62.80
15409;DHT22;7803;48.130;13.788;2024-01-10T03:27:14;23.60;62.70
15409;DHT22;7803;48.130;13.788;2024-01-10T03:30:30;23.60;62.30
15409;DHT22;7803;48.130;13.788;2024-01-10T03:33:34;23.60;61.00
15409;DHT22;7803;48.130;13.788;2024-01-10T03:36:50;23.60;60.00
15409;DHT22;7803;48.130;13.788;2024-01-10T03:40:08;23.60;59.90
15409;DHT22;7803;48.130;13.788;2024-01-10T03:43:24;23.60;59.70
15409;DHT22;7803;48.130;13.788;2024-01-10T03:46:26;23.50;59.60
15409;DHT22;7803;48.130;13.788;2024-01-10T03:53:17;23.50;59.60
15409;DHT22;7803;48.130;13.788;2024-01-10T03:56:20;23.50;59.70
15409;DHT22;7803;48.130;13.788;2024-01-10T03:59:36;23.50;59.70
15409;DHT22;7803;48.130;13.788;2024-01-10T04:02:53;23.50;59.70
15409;DHT22;7803;48.130;13.788;2024-01-10T04:05:55;23.50;59.90
15409;DHT22;7803;48.130;13.788;2024-01-10T04:09:02;23.40;59.70
15409;DHT22;7803;48.130;13.788;2024-01-10T04:12:05;23.40;59.80
15409;DHT22;7803;48.130;13.788;2024-01-10T04:15:08;23.50;59.80
15409;DHT22;7803;48.130;13.788;2024-01-10T04:18:24;23.50;59.90
15409;DHT22;7803;48.130;13.788;2024-01-10T04:21:28;23.40;59.60
15409;DHT22;7803;48.130;13.788;2024-01-10T04:24:45;23.40;59.70
15409;DHT22;7803;48.130;13.788;2024-01-10T04:27:47;23.50;59.80
15409;DHT22;7803;48.130;13.788;2024-01-10T04:30:50;23.40;59.60
15409;DHT22;7803;48.130;13.788;2024-01-10T04:33:52;23.40;59.80
15409;DHT22;7803;48.130;13.788;2024-01-10T04:37:11;23.40;59.80
15409;DHT22;7803;48.130;13.788;2024-01-10T04:40:34;23.50;60.00
15409;DHT22;7803;48.130;13.788;2024-01-10T04:43:36;23.50;59.90
15409;DHT22;7803;48.130;13.788;2024-01-10T04:46:39;23.50;60.00
15409;DHT22;7803;48.130;13.788;2024-01-10T04:49:55;23.40;60.00
15409;DHT22;7803;48.130;13.788;2024-01-10T04:52:57;23.40;60.00
15409;DHT22;7803;48.130;13.788;2024-01-10T05:00:01;23.50;60.00
15409;DHT22;7803;48.130;13.788;2024-01-10T05:03:04;23.50;60.20
15409;DHT22;7803;48.130;13.788;2024-01-10T05:06:20;23.40;60.00
15409;DHT22;7803;48.130;13.788;2024-01-10T05:09:22;23.50;60.00
15409;DHT22;7803;48.130;13.788;2024-01-10T05:12:24;23.50;60.00
15409;DHT22;7803;48.130;13.788;2024-01-10T05:15:28;23.40;60.00
15409;DHT22;7803;48.130;13.788;2024-01-10T05:18:44;23.40;60.00
15409;DHT22;7803;48.130;13.788;2024-01-10T05:22:01;23.40;60.10
15409;DHT22;7803;48.130;13.788;2024-01-10T05:25:03;23.40;60.30
15409;DHT22;7803;48.130;13.788;2024-01-10T05:28:06;23.50;60.30
15409;DHT22;7803;48.130;13.788;2024-01-10T05:31:24;23.50;60.40
15409;DHT22;7803;48.130;13.788;2024-01-10T05:34:26;23.40;60.30
15409;DHT22;7803;48.130;13.788;2024-01-10T05:37:28;23.50;60.30
15409;DHT22;7803;48.130;13.788;2024-01-10T05:40:45;23.50;60.30
15409;DHT22;7803;48.130;13.788;2024-01-10T05:44:01;23.40;60.50
15409;DHT22;7803;48.130;13.788;2024-01-10T05:50:52;23.40;60.50
15409;DHT22;7803;48.130;13.788;2024-01-10T05:53:54;23.40;60.60
15409;DHT22;7803;48.130;13.788;2024-01-10T05:57:10;23.50;60.60
15409;DHT22;7803;48.130;13.788;2024-01-10T06:00:13;23.40;60.60
15409;DHT22;7803;48.130;13.788;2024-01-10T06:03:29;23.50;60.60
15409;DHT22;7803;48.130;13.788;2024-01-10T06:06:33;23.50;60.60
15409;DHT22;7803;48.130;13.788;2024-01-10T06:09:35;23.50;60.80
15409;DHT22;7803;48.130;13.788;2024-01-10T06:12:51;23.50;60.60
15409;DHT22;7803;48.130;13.788;2024-01-10T06:15:53;23.50;60.60
15409;DHT22;7803;48.130;13.788;2024-01-10T06:18:55;23.40;60.60
15409;DHT22;7803;48.130;13.788;2024-01-10T06:22:06;23.50;60.70
15409;DHT22;7803;48.130;13.788;2024-01-10T06:25:08;23.40;60.60
15409;DHT22;7803;48.130;13.788;2024-01-10T06:28:11;23.40;60.60
15409;DHT22;7803;48.130;13.788;2024-01-10T06:31:27;23.50;60.70
15409;DHT22;7803;48.130;13.788;2024-01-10T06:34:43;23.50;60.70
15409;DHT22;7803;48.130;13.788;2024-01-10T06:37:47;23.50;60.80
15409;DHT22;7803;48.130;13.788;2024-01-10T06:40:50;23.50;60.60
15409;DHT22;7803;48.130;13.788;2024-01-10T06:43:53;23.40;60.60
15409;DHT22;7803;48.130;13.788;2024-01-10T06:47:09;23.40;60.80
15409;DHT22;7803;48.130;13.788;2024-01-10T06:50:11;23.50;60.80
15409;DHT22;7803;48.130;13.788;2024-01-10T06:57:15;23.50;61.10
15409;DHT22;7803;48.130;13.788;2024-01-10T07:00:18;23.50;61.20
15409;DHT22;7803;48.130;13.788;2024-01-10T07:03:21;23.50;61.30
15409;DHT22;7803;48.130;13.788;2024-01-10T07:06:23;23.50;61.30
15409;DHT22;7803;48.130;13.788;2024-01-10T07:09:26;23.50;61.50
15409;DHT22;7803;48.130;13.788;2024-01-10T07:12:29;23.40;61.40
15409;DHT22;7803;48.130;13.788;2024-01-10T07:15:31;23.40;61.40
15409;DHT22;7803;48.130;13.788;2024-01-10T07:18:34;23.40;61.50
15409;DHT22;7803;48.130;13.788;2024-01-10T07:21:36;23.50;61.60
15409;DHT22;7803;48.130;13.788;2024-01-10T07:24:38;23.40;61.30
15409;DHT22;7803;48.130;13.788;2024-01-10T07:31:41;23.40;61.60
15409;DHT22;7803;48.130;13.788;2024-01-10T07:34:43;23.40;61.40
15409;DHT22;7803;48.130;13.788;2024-01-10T07:37:59;23.40;61.30
15409;DHT22;7803;48.130;13.788;2024-01-10T07:41:15;23.40;61.40
15409;DHT22;7803;48.130;13.788;2024-01-10T07:44:31;23.50;61.60
15409;DHT22;7803;48.130;13.788;2024-01-10T07:47:35;23.40;61.50
15409;DHT22;7803;48.130;13.788;2024-01-10T07:50:38;23.40;61.60
15409;DHT22;7803;48.130;13.788;2024-01-10T07:53:54;23.50;61.60
15409;DHT22;7803;48.130;13.788;2024-01-10T07:57:10;23.40;61.50
15409;DHT22;7803;48.130;13.788;2024-01-10T08:00:26;23.40;61.60
15409;DHT22;7803;48.130;13.788;2024-01-10T08:03:40;23.40;61.30
15409;DHT22;7803;48.130;13.788;2024-01-10T08:06:42;23.40;61.30
15409;DHT22;7803;48.130;13.788;2024-01-10T08:09:44;23.40;61.10
15409;DHT22;7803;48.130;13.788;2024-01-10T08:13:00;23.40;61.10
15409;DHT22;7803;48.130;13.788;2024-01-10T08:16:17;23.40;61.10
15409;DHT22;7803;48.130;13.788;2024-01-10T08:19:21;23.40;61.10
15409;DHT22;7803;48.130;13.788;2024-01-10T08:22:37;23.40;61.00
15409;DHT22;7803;48.130;13.788;2024-01-10T08:25:39;23.50;61.00
15409;DHT22;7803;48.130;13.788;2024-01-10T08:28:56;23.50;60.80
15409;DHT22;7803;48.130;13.788;2024-01-10T08:31:58;23.50;60.80
15409;DHT22;7803;48.130;13.788;2024-01-10T08:38:47;23.50;61.60
15409;DHT22;7803;48.130;13.788;2024-01-10T08:42:03;23.60;60.70
15409;DHT22;7803;48.130;13.788;2024-01-10T08:45:19;23.50;60.80
15409;DHT22;7803;48.130;13.788;2024-01-10T08:48:35;23.60;60.80
15409;DHT22;7803;48.130;13.788;2024-01-10T08:51:51;23.60;60.80
15409;DHT22;7803;48.130;13.788;2024-01-10T08:55:09;23.60;60.90
15409;DHT22;7803;48.130;13.788;2024-01-10T08:58:11;23.60;61.00
15409;DHT22;7803;48.130;13.788;2024-01-10T09:01:27;23.60;60.90
15409;DHT22;7803;48.130;13.788;2024-01-10T09:04:44;23.60;61.00
15409;DHT22;7803;48.130;13.788;2024-01-10T09:07:46;23.60;60.90
15409;DHT22;7803;48.130;13.788;2024-01-10T09:11:05;23.60;61.00
15409;DHT22;7803;48.130;13.788;2024-01-10T09:14:21;23.60;61.00
15409;DHT22;7803;48.130;13.788;2024-01-10T09:17:37;23.60;61.00
15409;DHT22;7803;48.130;13.788;2024-01-10T09:20:52;23.60;60.90
15409;DHT22;7803;48.130;13.788;2024-01-10T09:24:08;23.70;61.00
15409;DHT22;7803;48.130;13.788;2024-01-10T09:27:13;23.60;60.90
15409;DHT22;7803;48.130;13.788;2024-01-10T09:30:15;23.60;60.90
15409;DHT22;7803;48.130;13.788;2024-01-10T09:33:31;23.60;60.90
15409;DHT22;7803;48.130;13.788;2024-01-10T09:36:47;23.60;60.90
15409;DHT22;7803;48.130;13.788;2024-01-10T09:39:49;23.70;61.00
15409;DHT22;7803;48.130;13.788;2024-01-10T09:42:53;23.70;60.90
15409;DHT22;7803;48.130;13.788;2024-01-10T09:46:09;23.70;61.00
15409;DHT22;7803;48.130;13.788;2024-01-10T09:49:24;23.70;60.90
15409;DHT22;7803;48.130;13.788;2024-01-10T09:52:44;23.70;61.00
15409;DHT22;7803;48.130;13.788;2024-01-10T09:55:49;23.70;61.00
15409;DHT22;7803;48.130;13.788;2024-01-10T09:59:07;23.70;61.00
15409;DHT22;7803;48.130;13.788;2024-01-10T10:02:24;23.70;61.00
15409;DHT22;7803;48.130;13.788;2024-01-10T10:05:40;23.70;61.10
15409;DHT22;7803;48.130;13.788;2024-01-10T10:08:56;23.70;61.00
15409;DHT22;7803;48.130;13.788;2024-01-10T10:11:59;23.70;61.10
15409;DHT22;7803;48.130;13.788;2024-01-10T10:15:26;23.60;61.00
15409;DHT22;7803;48.130;13.788;2024-01-10T10:18:29;23.70;61.10
15409;DHT22;7803;48.130;13.788;2024-01-10T10:21:45;23.70;61.10
15409;DHT22;7803;48.130;13.788;2024-01-10T10:24:51;23.70;61.10
15409;DHT22;7803;48.130;13.788;2024-01-10T10:28:08;23.70;61.20
15409;DHT22;7803;48.130;13.788;2024-01-10T10:31:26;23.80;61.30
15409;DHT22;7803;48.130;13.788;2024-01-10T10:34:31;23.80;61.20
15409;DHT22;7803;48.130;13.788;2024-01-10T10:37:34;23.90;61.30
15409;DHT22;7803;48.130;13.788;2024-01-10T10:40:36;23.80;61.30
15409;DHT22;7803;48.130;13.788;2024-01-10T10:43:39;23.80;61.30
15409;DHT22;7803;48.130;13.788;2024-01-10T10:57:50;23.90;61.30
15409;DHT22;7803;48.130;13.788;2024-01-10T11:00:55;23.90;61.30
15409;DHT22;7803;48.130;13.788;2024-01-10T11:04:01;23.90;61.30
15409;DHT22;7803;48.130;13.788;2024-01-10T11:07:18;23.90;61.20
15409;DHT22;7803;48.130;13.788;2024-01-10T11:10:35;23.90;61.10
15409;DHT22;7803;48.130;13.788;2024-01-10T11:14:09;23.90;61.20
15409;DHT22;7803;48.130;13.788;2024-01-10T11:17:35;23.90;61.20
15409;DHT22;7803;48.130;13.788;2024-01-10T11:20:55;23.90;61.30
15409;DHT22;7803;48.130;13.788;2024-01-10T11:24:00;24.00;61.30
15409;DHT22;7803;48.130;13.788;2024-01-10T11:27:11;23.90;61.20
15409;DHT22;7803;48.130;13.788;2024-01-10T11:30:30;23.90;61.10
15409;DHT22;7803;48.130;13.788;2024-01-10T11:33:36;23.90;61.20
15409;DHT22;7803;48.130;13.788;2024-01-10T11:36:40;24.00;61.40
15409;DHT22;7803;48.130;13.788;2024-01-10T11:40:03;24.00;61.30
15409;DHT22;7803;48.130;13.788;2024-01-10T11:43:13;23.90;61.30
15409;DHT22;7803;48.130;13.788;2024-01-10T11:50:18;23.90;61.30
15409;DHT22;7803;48.130;13.788;2024-01-10T11:53:39;23.90;61.30
15409;DHT22;7803;48.130;13.788;2024-01-10T11:56:42;23.90;61.30
15409;DHT22;7803;48.130;13.788;2024-01-10T11:59:58;23.90;61.40
15409;DHT22;7803;48.130;13.788;2024-01-10T12:03:01;23.90;61.30
15409;DHT22;7803;48.130;13.788;2024-01-10T12:06:10;23.90;61.30
15409;DHT22;7803;48.130;13.788;2024-01-10T12:09:13;24.00;61.30
15409;DHT22;7803;48.130;13.788;2024-01-10T12:12:15;24.00;61.50
15409;DHT22;7803;48.130;13.788;2024-01-10T12:15:18;24.00;61.40
15409;DHT22;7803;48.130;13.788;2024-01-10T12:18:20;23.90;61.40
15409;DHT22;7803;48.130;13.788;2024-01-10T12:21:24;24.00;61.50
15409;DHT22;7803;48.130;13.788;2024-01-10T12:24:27;24.00;61.50
15409;DHT22;7803;48.130;13.788;2024-01-10T12:27:43;24.00;61.50
15409;DHT22;7803;48.130;13.788;2024-01-10T12:30:59;23.90;61.50
15409;DHT22;7803;48.130;13.788;2024-01-10T12:34:01;24.00;61.50
15409;DHT22;7803;48.130;13.788;2024-01-10T12:37:05;24.00;61.50
15409;DHT22;7803;48.130;13.788;2024-01-10T12:40:09;24.00;61.60
15409;DHT22;7803;48.130;13.788;2024-01-10T12:43:25;24.00;61.60
15409;DHT22;7803;48.130;13.788;2024-01-10T12:46:27;24.00;61.50
15409;DHT22;7803;48.130;13.788;2024-01-10T12:49:30;24.00;61.60
15409;DHT22;7803;48.130;13.788;2024-01-10T12:52:47;24.00;61.60
15409;DHT22;7803;48.130;13.788;2024-01-10T12:55:49;24.00;61.60
15409;DHT22;7803;48.130;13.788;2024-01-10T12:58:52;24.00;61.60
15409;DHT22;7803;48.130;13.788;2024-01-10T13:01:55;24.00;61.60
15409;DHT22;7803;48.130;13.788;2024-01-10T13:04:57;24.00;61.60
15409;DHT22;7803;48.130;13.788;2024-01-10T13:08:01;24.00;61.60
15409;DHT22;7803;48.130;13.788;2024-01-10T13:11:05;24.00;61.60
15409;DHT22;7803;48.130;13.788;2024-01-10T13:14:09;24.00;61.60
15409;DHT22;7803;48.130;13.788;2024-01-10T13:17:11;24.00;61.70
15409;DHT22;7803;48.130;13.788;2024-01-10T13:20:14;24.00;61.80
15409;DHT22;7803;48.130;13.788;2024-01-10T13:23:19;24.00;61.80
15409;DHT22;7803;48.130;13.788;2024-01-10T13:26:22;24.00;62.30
15409;DHT22;7803;48.130;13.788;2024-01-10T13:29:25;24.00;62.20
15409;DHT22;7803;48.130;13.788;2024-01-10T13:32:27;24.00;62.00
15409;DHT22;7803;48.130;13.788;2024-01-10T13:35:42;24.00;62.00
15409;DHT22;7803;48.130;13.788;2024-01-10T13:38:46;24.00;62.80
15409;DHT22;7803;48.130;13.788;2024-01-10T13:41:49;24.00;62.00
15409;DHT22;7803;48.130;13.788;2024-01-10T13:44:52;24.00;62.00
15409;DHT22;7803;48.130;13.788;2024-01-10T13:47:54;23.90;61.80
15409;DHT22;7803;48.130;13.788;2024-01-10T13:50:56;24.00;62.80
15409;DHT22;7803;48.130;13.788;2024-01-10T13:57:32;23.90;62.20
15409;DHT22;7803;48.130;13.788;2024-01-10T14:00:35;23.90;62.40
15409;DHT22;7803;48.130;13.788;2024-01-10T14:03:51;23.90;62.60
15409;DHT22;7803;48.130;13.788;2024-01-10T17:25:46;24.00;61.80
15409;DHT22;7803;48.130;13.788;2024-01-10T17:28:48;24.00;61.80
15409;DHT22;7803;48.130;13.788;2024-01-10T17:31:50;24.10;61.80
15409;DHT22;7803;48.130;13.788;2024-01-10T17:34:53;24.00;62.10
15409;DHT22;7803;48.130;13.788;2024-01-10T17:37:55;24.10;62.60
15409;DHT22;7803;48.130;13.788;2024-01-10T17:40:58;24.10;62.80
15409;DHT22;7803;48.130;13.788;2024-01-10T17:44:00;24.10;62.70
15409;DHT22;7803;48.130;13.788;2024-01-10T17:47:03;24.00;62.60
15409;DHT22;7803;48.130;13.788;2024-01-10T17:50:07;24.00;62.40
15409;DHT22;7803;48.130;13.788;2024-01-10T17:53:09;24.00;62.30
15409;DHT22;7803;48.130;13.788;2024-01-10T17:56:12;24.00;62.20
15409;DHT22;7803;48.130;13.788;2024-01-10T17:59:14;24.00;62.10
15409;DHT22;7803;48.130;13.788;2024-01-10T18:02:17;24.10;62.30
15409;DHT22;7803;48.130;13.788;2024-01-10T18:05:19;24.00;62.20
15409;DHT22;7803;48.130;13.788;2024-01-10T18:08:21;24.10;62.30
15409;DHT22;7803;48.130;13.788;2024-01-10T18:11:25;24.00;62.10
15409;DHT22;7803;48.130;13.788;2024-01-10T18:14:27;24.10;62.30
15409;DHT22;7803;48.130;13.788;2024-01-10T18:17:32;24.00;62.20
15409;DHT22;7803;48.130;13.788;2024-01-10T18:20:34;24.00;62.00
15409;DHT22;7803;48.130;13.788;2024-01-10T18:23:38;24.10;62.20
15409;DHT22;7803;48.130;13.788;2024-01-10T18:26:55;24.10;62.00
15409;DHT22;7803;48.130;13.788;2024-01-10T18:29:58;24.00;62.20
15409;DHT22;7803;48.130;13.788;2024-01-10T18:33:15;24.10;62.20
15409;DHT22;7803;48.130;13.788;2024-01-10T18:36:17;24.10;62.20
15409;DHT22;7803;48.130;13.788;2024-01-10T18:39:20;24.10;62.00
15409;DHT22;7803;48.130;13.788;2024-01-10T18:46:10;24.10;62.00
15409;DHT22;7803;48.130;13.788;2024-01-10T18:49:12;24.10;62.10
15409;DHT22;7803;48.130;13.788;2024-01-10T18:52:28;24.10;62.00
15409;DHT22;7803;48.130;13.788;2024-01-10T18:55:30;24.10;62.00
15409;DHT22;7803;48.130;13.788;2024-01-10T18:58:32;24.10;62.00
15409;DHT22;7803;48.130;13.788;2024-01-10T19:01:36;24.10;62.00
15409;DHT22;7803;48.130;13.788;2024-01-10T19:04:38;24.10;62.00
15409;DHT22;7803;48.130;13.788;2024-01-10T19:07:40;24.10;62.00
15409;DHT22;7803;48.130;13.788;2024-01-10T19:10:56;24.10;61.90
15409;DHT22;7803;48.130;13.788;2024-01-10T19:13:59;24.10;61.80
15409;DHT22;7803;48.130;13.788;2024-01-10T19:17:02;24.00;61.80
15409;DHT22;7803;48.130;13.788;2024-01-10T19:20:05;24.10;61.80
15409;DHT22;7803;48.130;13.788;2024-01-10T19:23:08;24.10;61.70
15409;DHT22;7803;48.130;13.788;2024-01-10T19:26:24;24.10;61.70
15409;DHT22;7803;48.130;13.788;2024-01-10T19:29:26;24.10;61.70
15409;DHT22;7803;48.130;13.788;2024-01-10T19:32:39;24.10;61.80
15409;DHT22;7803;48.130;13.788;2024-01-10T19:35:41;24.10;61.70
15409;DHT22;7803;48.130;13.788;2024-01-10T19:38:44;24.10;61.80
15409;DHT22;7803;48.130;13.788;2024-01-10T19:41:46;24.10;61.80
15409;DHT22;7803;48.130;13.788;2024-01-10T19:44:50;24.10;61.60
15409;DHT22;7803;48.130;13.788;2024-01-10T19:47:54;24.10;61.60
15409;DHT22;7803;48.130;13.788;2024-01-10T19:50:56;24.20;61.60
15409;DHT22;7803;48.130;13.788;2024-01-10T19:53:58;24.20;61.60
15409;DHT22;7803;48.130;13.788;2024-01-10T19:57:00;24.10;61.50
15409;DHT22;7803;48.130;13.788;2024-01-10T20:00:02;24.20;61.60
15409;DHT22;7803;48.130;13.788;2024-01-10T20:03:06;24.20;61.60
15409;DHT22;7803;48.130;13.788;2024-01-10T20:06:08;24.10;61.50
15409;DHT22;7803;48.130;13.788;2024-01-10T20:09:10;24.20;61.50
15409;DHT22;7803;48.130;13.788;2024-01-10T20:12:16;24.20;61.50
15409;DHT22;7803;48.130;13.788;2024-01-10T20:15:18;24.20;61.50
15409;DHT22;7803;48.130;13.788;2024-01-10T20:18:21;24.20;61.60
15409;DHT22;7803;48.130;13.788;2024-01-10T20:21:24;24.20;61.60
15409;DHT22;7803;48.130;13.788;2024-01-10T20:24:26;24.20;61.50
15409;DHT22;7803;48.130;13.788;2024-01-10T20:27:28;24.20;61.50
15409;DHT22;7803;48.130;13.788;2024-01-10T20:30:30;24.20;61.60
15409;DHT22;7803;48.130;13.788;2024-01-10T20:33:36;24.20;61.60
15409;DHT22;7803;48.130;13.788;2024-01-10T20:36:38;24.20;61.50
15409;DHT22;7803;48.130;13.788;2024-01-10T20:39:54;24.20;61.50
15409;DHT22;7803;48.130;13.788;2024-01-10T20:42:56;24.20;61.50
15409;DHT22;7803;48.130;13.788;2024-01-10T20:45:59;24.20;61.40
15409;DHT22;7803;48.130;13.788;2024-01-10T20:49:16;24.20;61.30
15409;DHT22;7803;48.130;13.788;2024-01-10T20:52:18;24.20;61.30
15409;DHT22;7803;48.130;13.788;2024-01-10T20:55:35;24.20;61.30
15409;DHT22;7803;48.130;13.788;2024-01-10T20:58:37;24.20;61.10
15409;DHT22;7803;48.130;13.788;2024-01-10T21:01:39;24.20;60.70
15409;DHT22;7803;48.130;13.788;2024-01-10T21:04:43;24.20;60.80
15409;DHT22;7803;48.130;13.788;2024-01-10T21:07:45;24.20;60.90
15409;DHT22;7803;48.130;13.788;2024-01-10T21:10:47;24.20;61.00
15409;DHT22;7803;48.130;13.788;2024-01-10T21:13:49;24.20;61.10
15409;DHT22;7803;48.130;13.788;2024-01-10T21:17:07;24.20;61.20
15409;DHT22;7803;48.130;13.788;2024-01-10T21:20:11;24.20;61.50
15409;DHT22;7803;48.130;13.788;2024-01-10T21:23:13;24.20;61.60
15409;DHT22;7803;48.130;13.788;2024-01-10T21:26:15;24.20;61.80
15409;DHT22;7803;48.130;13.788;2024-01-10T21:29:20;24.10;61.90
15409;DHT22;7803;48.130;13.788;2024-01-10T21:32:36;24.20;61.90
15409;DHT22;7803;48.130;13.788;2024-01-10T21:35:40;24.10;62.10
15409;DHT22;7803;48.130;13.788;2024-01-10T21:38:42;24.10;62.20
15409;DHT22;7803;48.130;13.788;2024-01-10T21:41:45;24.10;62.20
15409;DHT22;7803;48.130;13.788;2024-01-10T21:44:47;24.20;62.50
15409;DHT22;7803;48.130;13.788;2024-01-10T21:48:04;24.10;62.00
15409;DHT22;7803;48.130;13.788;2024-01-10T21:51:21;24.10;61.70
15409;DHT22;7803;48.130;13.788;2024-01-10T21:54:30;24.10;61.50
15409;DHT22;7803;48.130;13.788;2024-01-10T21:57:33;24.10;61.60
15409;DHT22;7803;48.130;13.788;2024-01-10T22:00:36;24.10;61.60
15409;DHT22;7803;48.130;13.788;2024-01-10T22:03:51;24.10;61.60
15409;DHT22;7803;48.130;13.788;2024-01-10T22:07:09;24.10;61.60
15409;DHT22;7803;48.130;13.788;2024-01-10T22:10:11;24.10;61.60
15409;DHT22;7803;48.130;13.788;2024-01-10T22:13:15;24.10;61.60
15409;DHT22;7803;48.130;13.788;2024-01-10T22:16:31;24.00;61.60
15409;DHT22;7803;48.130;13.788;2024-01-10T22:19:47;24.10;61.70
15409;DHT22;7803;48.130;13.788;2024-01-10T22:23:05;24.10;61.60
15409;DHT22;7803;48.130;13.788;2024-01-10T22:26:07;24.00;61.60
15409;DHT22;7803;48.130;13.788;2024-01-10T22:29:10;24.10;61.70
15409;DHT22;7803;48.130;13.788;2024-01-10T22:32:12;24.00;61.70
15409;DHT22;7803;48.130;13.788;2024-01-10T22:35:14;24.00;61.70
15409;DHT22;7803;48.130;13.788;2024-01-10T22:38:32;24.00;62.60
15409;DHT22;7803;48.130;13.788;2024-01-10T22:41:35;24.00;61.60
15409;DHT22;7803;48.130;13.788;2024-01-10T22:44:51;24.00;61.80
15409;DHT22;7803;48.130;13.788;2024-01-10T22:48:11;24.00;61.70
15409;DHT22;7803;48.130;13.788;2024-01-10T22:51:14;23.90;61.70
15409;DHT22;7803;48.130;13.788;2024-01-10T22:58:17;23.90;61.60
15409;DHT22;7803;48.130;13.788;2024-01-10T23:01:20;23.90;61.50
15409;DHT22;7803;48.130;13.788;2024-01-10T23:04:31;23.90;61.60
15409;DHT22;7803;48.130;13.788;2024-01-10T23:07:48;23.90;61.60
15409;DHT22;7803;48.130;13.788;2024-01-10T23:11:07;23.90;61.60
15409;DHT22;7803;48.130;13.788;2024-01-10T23:17:57;23.90;61.60
15409;DHT22;7803;48.130;13.788;2024-01-10T23:20:59;23.90;61.60
15409;DHT22;7803;48.130;13.788;2024-01-10T23:24:29;23.90;61.60
15409;DHT22;7803;48.130;13.788;2024-01-10T23:27:31;23.90;61.60
15409;DHT22;7803;48.130;13.788;2024-01-10T23:30:33;23.90;61.60
15409;DHT22;7803;48.130;13.788;2024-01-10T23:33:35;23.90;61.60
15409;DHT22;7803;48.130;13.788;2024-01-10T23:36:37;23.90;61.50
15409;DHT22;7803;48.130;13.788;2024-01-10T23:39:40;23.90;61.50
15409;DHT22;7803;48.130;13.788;2024-01-10T23:42:42;23.90;61.50
15409;DHT22;7803;48.130;13.788;2024-01-10T23:45:44;23.80;61.50
15409;DHT22;7803;48.130;13.788;2024-01-10T23:48:46;23.90;61.50
15409;DHT22;7803;48.130;13.788;2024-01-10T23:51:48;23.80;61.30
15409;DHT22;7803;48.130;13.788;2024-01-10T23:54:52;23.90;61.50
15409;DHT22;7803;48.130;13.788;2024-01-10T23:57:54;23.80;61.40
